Time;durP1;ratioP1;P1;durP2;ratioP2;P2;SDS_P1;SDS_P2;PMS_P1;PMS_P2;Temp;Humidity;BMP_temperature;BMP_pressure;BME280_temperature;BME280_humidity;BME280_pressure;Samples;Min_cycle;Max_cycle;Signal;HPM_P1;HPM_P2
2021/05/16 00:02:08;;;;;;;8.20;7.38;;;;;;;16.97;66.05;100410.56;5054459;28;20045;-60
2021/05/16 00:04:35;;;;;;;8.82;7.25;;;;;;;16.97;65.92;100397.31;5054265;28;20048;-59
2021/05/16 00:07:01;;;;;;;8.35;7.45;;;;;;;16.96;65.85;100400.94;5054506;28;20057;-60
2021/05/16 00:09:29;;;;;;;9.10;7.70;;;;;;;16.95;65.93;100407.22;5054370;28;20075;-60
2021/05/16 00:11:57;;;;;;;8.45;7.07;;;;;;;16.94;66.07;100410.88;5053977;28;20554;-60
2021/05/16 00:14:26;;;;;;;11.55;7.68;;;;;;;16.93;65.94;100412.66;5054282;28;20053;-59
2021/05/16 00:16:53;;;;;;;8.32;7.43;;;;;;;16.92;66.01;100412.78;5054127;28;20397;-60
2021/05/16 00:19:20;;;;;;;8.70;7.28;;;;;;;16.89;65.92;100413.06;5044061;28;20059;-60
2021/05/16 00:21:48;;;;;;;8.63;6.97;;;;;;;16.88;65.93;100412.19;5054150;28;20136;-60
2021/05/16 00:24:15;;;;;;;8.80;7.50;;;;;;;16.87;65.71;100417.63;5054117;28;20060;-60
2021/05/16 00:26:42;;;;;;;8.25;7.35;;;;;;;16.84;65.84;100410.81;5053731;28;20052;-60
2021/05/16 00:29:09;;;;;;;9.10;7.60;;;;;;;16.78;65.91;100414.00;5054039;28;20057;-60
2021/05/16 00:31:35;;;;;;;8.32;7.50;;;;;;;16.75;66.18;100409.78;5054071;28;20052;-60
2021/05/16 00:34:02;;;;;;;7.97;7.18;;;;;;;16.73;66.24;100408.25;5039666;28;20049;-60
2021/05/16 00:36:29;;;;;;;10.07;8.02;;;;;;;16.73;66.33;100405.59;5048005;28;20052;-60
2021/05/16 00:38:56;;;;;;;9.60;8.27;;;;;;;16.74;66.36;100402.00;5053805;28;20044;-60
2021/05/16 00:41:23;;;;;;;9.48;8.48;;;;;;;16.73;65.99;100402.97;5053610;28;20049;-60
2021/05/16 00:43:50;;;;;;;10.35;9.25;;;;;;;16.71;66.09;100404.91;5053708;28;20060;-60
2021/05/16 00:46:16;;;;;;;9.98;8.95;;;;;;;16.67;66.18;100404.34;5053560;28;20041;-60
2021/05/16 00:48:46;;;;;;;11.18;9.70;;;;;;;16.63;66.50;100402.91;5053580;28;20112;-60
2021/05/16 00:51:13;;;;;;;11.70;8.82;;;;;;;16.61;66.36;100410.19;5053636;28;20395;-60
2021/05/16 00:53:39;;;;;;;9.57;8.60;;;;;;;16.58;66.29;100405.13;5047703;28;20045;-60
2021/05/16 00:56:06;;;;;;;12.50;8.65;;;;;;;16.56;66.31;100405.28;5047759;28;20501;-60
2021/05/16 00:58:33;;;;;;;9.85;8.77;;;;;;;16.55;66.00;100393.00;5053244;28;20052;-59
2021/05/16 01:01:03;;;;;;;9.60;8.25;;;;;;;16.55;65.85;100390.34;5053541;28;20052;-60
2021/05/16 01:03:32;;;;;;;11.00;7.80;;;;;;;16.53;65.71;100384.38;5053384;28;20045;-60
2021/05/16 01:05:59;;;;;;;8.57;7.57;;;;;;;16.52;65.87;100380.03;5053409;28;20049;-60
2021/05/16 01:08:25;;;;;;;10.25;7.45;;;;;;;16.52;65.87;100381.84;5053127;28;20045;-60
2021/05/16 01:10:52;;;;;;;8.68;7.35;;;;;;;16.49;65.71;100380.28;5052494;28;20054;-60
2021/05/16 01:13:20;;;;;;;9.63;7.47;;;;;;;16.48;65.79;100381.25;5048901;28;20049;-60
2021/05/16 01:15:47;;;;;;;8.10;7.28;;;;;;;16.44;65.62;100374.56;5053198;28;20041;-60
2021/05/16 01:18:14;;;;;;;9.40;7.60;;;;;;;16.42;65.26;100387.13;5052882;28;20401;-60
2021/05/16 01:20:44;;;;;;;9.35;7.43;;;;;;;16.34;65.07;100393.09;5053109;28;20052;-60
2021/05/16 01:23:12;;;;;;;10.32;7.88;;;;;;;16.30;65.35;100394.28;5053054;28;20053;-60
2021/05/16 01:25:43;;;;;;;8.43;7.35;;;;;;;16.25;65.12;100394.72;5052947;28;20382;-60
2021/05/16 01:28:11;;;;;;;8.85;7.95;;;;;;;16.26;65.38;100400.84;5052750;28;20049;-60
2021/05/16 01:30:38;;;;;;;12.55;8.32;;;;;;;16.20;65.50;100396.94;5051469;28;20052;-60
2021/05/16 01:33:07;;;;;;;8.60;7.70;;;;;;;16.19;65.72;100404.97;5045940;28;20042;-60
2021/05/16 01:35:34;;;;;;;10.48;8.00;;;;;;;16.16;65.67;100409.59;5045323;28;20052;-60
2021/05/16 01:38:03;;;;;;;8.90;7.72;;;;;;;16.12;65.83;100404.66;5052728;28;20057;-59
2021/05/16 01:40:31;;;;;;;11.35;8.05;;;;;;;16.10;65.72;100410.09;5052919;28;20486;-60
2021/05/16 01:42:58;;;;;;;8.80;7.75;;;;;;;16.08;66.00;100417.31;5052092;28;20040;-60
2021/05/16 01:45:28;;;;;;;10.68;7.60;;;;;;;16.07;65.95;100413.00;5048935;28;20494;-60
2021/05/16 01:47:56;;;;;;;9.73;7.78;;;;;;;16.05;65.97;100412.31;5049396;28;20048;-60
2021/05/16 01:50:27;;;;;;;9.43;8.45;;;;;;;16.00;65.95;100412.69;5052440;28;20513;-60
2021/05/16 01:52:53;;;;;;;11.75;8.30;;;;;;;15.98;65.76;100411.13;5052379;28;20493;-60
2021/05/16 01:55:20;;;;;;;9.88;8.40;;;;;;;15.98;65.88;100409.31;5052426;28;20048;-60
2021/05/16 01:57:48;;;;;;;8.23;7.40;;;;;;;15.98;66.15;100408.50;5052185;28;20053;-60
2021/05/16 02:00:31;;;;;;;9.57;6.78;;;;;;;15.95;65.84;100406.13;5052352;28;20045;-60
2021/05/16 02:02:58;;;;;;;10.10;7.25;;;;;;;15.95;65.96;100417.53;5048804;28;20051;-60
2021/05/16 02:05:26;;;;;;;7.18;6.47;;;;;;;15.95;65.99;100422.81;5052183;28;20041;-60
2021/05/16 02:07:52;;;;;;;7.60;6.65;;;;;;;15.94;65.84;100418.50;5052267;28;20489;-60
2021/05/16 02:10:20;;;;;;;8.63;4.88;;;;;;;15.94;65.39;100417.66;5052010;28;20045;-60
2021/05/16 02:12:48;;;;;;;5.47;4.75;;;;;;;15.93;65.38;100419.47;5052157;28;20135;-60
2021/05/16 02:15:15;;;;;;;5.15;3.95;;;;;;;15.93;64.75;100421.28;5052047;28;20508;-60
2021/05/16 02:17:42;;;;;;;4.72;4.20;;;;;;;15.90;64.78;100418.91;5041555;28;20402;-60
2021/05/16 02:20:14;;;;;;;6.85;4.60;;;;;;;15.89;64.78;100406.63;5048243;28;20497;-60
2021/05/16 02:22:41;;;;;;;6.78;4.35;;;;;;;15.88;64.37;100397.00;5051546;28;20045;-59
2021/05/16 02:25:09;;;;;;;8.93;5.53;;;;;;;15.89;64.49;100399.53;5051835;28;20095;-60
2021/05/16 02:27:36;;;;;;;8.13;4.47;;;;;;;15.88;64.64;100389.06;5051998;28;20056;-60
2021/05/16 02:30:05;;;;;;;5.95;4.35;;;;;;;15.88;64.60;100394.38;5052019;28;20045;-60
2021/05/16 02:32:32;;;;;;;5.70;4.18;;;;;;;15.87;64.52;100397.97;5049641;28;20052;-60
2021/05/16 02:34:59;;;;;;;5.35;4.03;;;;;;;15.85;64.97;100413.16;5048251;28;20045;-60
2021/05/16 02:37:26;;;;;;;9.18;4.43;;;;;;;15.85;64.94;100394.66;5051782;28;20049;-60
2021/05/16 02:39:52;;;;;;;6.95;4.28;;;;;;;15.84;64.74;100399.06;5052037;28;20460;-60
2021/05/16 02:42:19;;;;;;;9.43;4.60;;;;;;;15.84;64.75;100393.78;5051668;28;20045;-60
2021/05/16 02:44:46;;;;;;;4.97;4.30;;;;;;;15.83;64.54;100390.31;5051828;28;20045;-60
2021/05/16 02:47:13;;;;;;;6.47;4.10;;;;;;;15.81;64.63;100394.03;5051822;28;20135;-60
2021/05/16 02:49:40;;;;;;;5.18;4.28;;;;;;;15.80;64.44;100398.47;5046556;28;20047;-60
2021/05/16 02:52:06;;;;;;;6.90;4.65;;;;;;;15.79;64.58;100398.59;5051760;28;20051;-59
2021/05/16 02:54:34;;;;;;;5.97;4.50;;;;;;;15.76;64.63;100402.34;5052018;28;20052;-60
2021/05/16 02:57:01;;;;;;;5.82;4.38;;;;;;;15.74;64.58;100398.16;5051936;28;20049;-61
2021/05/16 02:59:28;;;;;;;7.65;4.20;;;;;;;15.75;64.51;100402.47;5051667;28;20456;-60
2021/05/16 03:01:55;;;;;;;7.30;4.65;;;;;;;15.72;64.52;100398.28;5050554;28;20049;-59
2021/05/16 03:04:23;;;;;;;6.85;4.82;;;;;;;15.71;64.55;100393.13;5047430;28;20060;-60
2021/05/16 03:06:49;;;;;;;6.78;5.03;;;;;;;15.69;64.43;100393.22;5045976;28;20405;-60
2021/05/16 03:09:16;;;;;;;6.28;4.97;;;;;;;15.68;64.40;100383.66;5048058;28;20045;-60
2021/05/16 03:11:43;;;;;;;6.38;5.47;;;;;;;15.68;64.77;100389.75;5048390;28;20512;-60
2021/05/16 03:14:10;;;;;;;5.68;4.32;;;;;;;15.66;64.50;100381.09;5047915;28;20049;-60
2021/05/16 03:16:37;;;;;;;8.90;4.95;;;;;;;15.66;64.63;100393.50;5048226;28;20052;-60
2021/05/16 03:19:04;;;;;;;8.10;5.10;;;;;;;15.66;64.56;100390.84;5047781;28;20099;-60
2021/05/16 03:21:31;;;;;;;21.90;6.35;;;;;;;15.63;64.55;100391.97;5048269;28;20135;-60
2021/05/16 03:23:58;;;;;;;5.47;4.70;;;;;;;15.63;64.53;100393.75;5040187;28;20046;-60
2021/05/16 03:26:26;;;;;;;5.00;4.47;;;;;;;15.61;64.43;100390.41;5047328;28;20504;-60
2021/05/16 03:28:52;;;;;;;9.45;4.80;;;;;;;15.59;64.14;100390.53;5048155;28;20044;-60
2021/05/16 03:31:19;;;;;;;5.25;4.40;;;;;;;15.59;64.15;100394.97;5047980;28;20041;-61
2021/05/16 03:33:46;;;;;;;11.18;4.93;;;;;;;15.56;64.22;100396.06;5035723;28;20514;-60
2021/05/16 03:36:13;;;;;;;6.78;5.13;;;;;;;15.56;64.41;100395.25;5049752;28;20506;-60
2021/05/16 03:38:40;;;;;;;5.70;4.40;;;;;;;15.55;64.54;100402.31;5051543;28;20501;-61
2021/05/16 03:41:07;;;;;;;7.10;5.10;;;;;;;15.56;64.59;100414.59;5051102;28;20099;-60
2021/05/16 03:43:34;;;;;;;5.95;5.32;;;;;;;15.55;64.80;100417.38;5051884;28;20056;-60
2021/05/16 03:46:01;;;;;;;5.15;4.60;;;;;;;15.52;64.71;100407.88;5051485;28;20053;-63
2021/05/16 03:48:27;;;;;;;4.85;4.35;;;;;;;15.50;64.46;100405.38;5051413;28;20051;-60
2021/05/16 03:50:54;;;;;;;6.25;5.10;;;;;;;15.48;64.34;100409.94;5051374;28;20056;-60
2021/05/16 03:53:21;;;;;;;7.82;5.10;;;;;;;15.45;64.29;100404.91;5051281;28;20528;-60
2021/05/16 03:55:47;;;;;;;7.10;4.75;;;;;;;15.44;64.14;100408.50;5051364;28;20045;-61
2021/05/16 03:58:14;;;;;;;7.00;4.75;;;;;;;15.43;64.22;100408.66;5046230;28;20440;-60
2021/05/16 04:00:41;;;;;;;5.15;4.50;;;;;;;15.41;64.17;100423.78;5051219;28;20040;-60
2021/05/16 04:03:07;;;;;;;5.32;4.38;;;;;;;15.39;64.26;100420.41;5050973;28;20444;-60
2021/05/16 04:05:34;;;;;;;5.70;4.38;;;;;;;15.39;64.19;100410.72;5051295;28;20045;-60
2021/05/16 04:08:00;;;;;;;6.05;4.65;;;;;;;15.40;64.32;100415.03;5050829;28;20048;-60
2021/05/16 04:10:27;;;;;;;8.18;5.35;;;;;;;15.42;64.44;100423.66;5051447;28;20482;-60
2021/05/16 04:12:54;;;;;;;6.90;5.40;;;;;;;15.43;65.00;100428.00;5050859;28;20132;-60
2021/05/16 04:15:20;;;;;;;6.75;5.50;;;;;;;15.47;64.94;100436.50;5049829;28;20469;-60
2021/05/16 04:17:47;;;;;;;5.68;4.75;;;;;;;15.48;65.17;100430.25;5050931;28;20045;-60
2021/05/16 04:20:14;;;;;;;7.15;5.28;;;;;;;15.49;65.06;100438.06;5050675;28;20040;-60
2021/05/16 04:22:41;;;;;;;7.63;5.22;;;;;;;15.51;65.21;100432.63;5050862;28;20052;-61
2021/05/16 04:25:08;;;;;;;6.85;5.03;;;;;;;15.54;65.22;100440.34;5050648;28;20053;-60
2021/05/16 04:27:35;;;;;;;8.88;5.30;;;;;;;15.56;65.38;100441.03;5051061;28;20057;-60
2021/05/16 04:30:04;;;;;;;8.15;6.07;;;;;;;15.60;65.32;100444.28;5051010;28;20072;-60
2021/05/16 04:32:30;;;;;;;12.48;6.47;;;;;;;15.62;65.56;100445.81;5029362;28;20056;-60
2021/05/16 04:34:57;;;;;;;8.38;6.90;;;;;;;15.65;65.62;100442.91;5039016;28;20413;-60
2021/05/16 04:37:24;;;;;;;13.07;6.70;;;;;;;15.67;65.62;100440.97;5050317;28;20055;-60
2021/05/16 04:39:51;;;;;;;12.70;6.65;;;;;;;15.69;65.75;100435.56;5048679;28;20565;-60
2021/05/16 04:42:18;;;;;;;10.02;6.50;;;;;;;15.73;65.56;100444.94;5039702;28;20227;-60
2021/05/16 04:44:44;;;;;;;10.82;6.82;;;;;;;15.75;65.84;100444.81;5049202;28;20052;-60
2021/05/16 04:47:11;;;;;;;12.15;6.68;;;;;;;15.76;65.86;100439.38;5050291;28;20049;-60
2021/05/16 04:49:38;;;;;;;10.77;7.13;;;;;;;15.77;66.15;100446.34;5048127;28;20045;-61
2021/05/16 04:52:05;;;;;;;10.18;6.95;;;;;;;15.78;66.27;100452.47;5050369;28;20048;-60
2021/05/16 04:54:32;;;;;;;11.10;6.38;;;;;;;15.80;65.93;100454.03;5050168;28;20556;-60
2021/05/16 04:56:59;;;;;;;8.98;6.43;;;;;;;15.82;66.04;100451.28;5050235;28;20045;-60
2021/05/16 04:59:26;;;;;;;8.35;6.20;;;;;;;15.85;66.14;100451.03;5049953;28;20053;-60
2021/05/16 05:01:53;;;;;;;9.88;6.10;;;;;;;15.87;66.17;100462.34;5049996;28;20052;-60
2021/05/16 05:04:20;;;;;;;10.07;5.85;;;;;;;15.88;66.38;100464.00;5050134;28;20131;-60
2021/05/16 05:06:46;;;;;;;9.25;5.68;;;;;;;15.89;66.18;100472.78;5043340;28;20489;-60
2021/05/16 05:09:13;;;;;;;6.97;5.55;;;;;;;15.90;65.92;100485.88;5050205;28;20417;-60
2021/05/16 05:11:40;;;;;;;6.75;5.00;;;;;;;15.90;66.05;100487.72;5050152;28;20115;-60
2021/05/16 05:14:07;;;;;;;8.60;5.53;;;;;;;15.89;66.21;100486.84;5049607;28;20131;-60
2021/05/16 05:16:33;;;;;;;10.85;6.13;;;;;;;15.89;66.21;100489.50;5049996;28;20047;-61
2021/05/16 05:19:00;;;;;;;8.25;5.43;;;;;;;15.90;66.35;100490.34;5049503;28;20045;-60
2021/05/16 05:21:26;;;;;;;10.00;5.07;;;;;;;15.91;65.99;100494.66;5049600;28;20057;-60
2021/05/16 05:23:53;;;;;;;9.40;5.32;;;;;;;15.91;66.26;100479.63;5048703;28;20045;-60
2021/05/16 05:26:26;;;;;;;6.22;4.95;;;;;;;15.92;65.74;100483.97;5049625;28;20041;-60
2021/05/16 05:29:01;;;;;;;5.90;5.32;;;;;;;15.93;65.81;100475.03;5049302;28;20041;-60
2021/05/16 05:31:34;;;;;;;5.45;4.72;;;;;;;15.96;65.84;100471.28;5049692;28;20121;-60
2021/05/16 05:34:00;;;;;;;7.70;4.88;;;;;;;15.97;65.34;100467.69;5035279;28;20573;-61
2021/05/16 05:36:29;;;;;;;5.95;4.90;;;;;;;15.99;65.33;100468.41;5049557;28;20037;-60
2021/05/16 05:38:57;;;;;;;7.10;5.43;;;;;;;15.99;65.11;100469.22;5040748;28;20524;-60
2021/05/16 05:41:24;;;;;;;5.22;4.72;;;;;;;16.01;65.15;100482.34;5048513;28;20088;-60
2021/05/16 05:43:50;;;;;;;6.95;4.88;;;;;;;16.02;65.38;100478.72;5049111;28;20124;-60
2021/05/16 05:46:17;;;;;;;6.15;4.82;;;;;;;16.03;65.11;100485.69;5049037;28;20482;-60
2021/05/16 05:48:44;;;;;;;8.30;5.03;;;;;;;16.06;65.04;100492.53;5049387;28;20044;-60
2021/05/16 05:51:10;;;;;;;15.75;10.70;;;;;;;16.07;65.07;100488.94;5049177;28;20049;-61
2021/05/16 05:53:37;;;;;;;6.95;4.65;;;;;;;16.08;65.00;100495.91;5049455;28;20076;-60
2021/05/16 05:56:04;;;;;;;5.97;4.60;;;;;;;16.10;65.18;100507.19;5035416;28;20056;-60
2021/05/16 05:58:33;;;;;;;6.63;5.10;;;;;;;16.12;65.24;100513.19;5034761;28;20096;-60
2021/05/16 06:01:00;;;;;;;5.50;5.00;;;;;;;16.16;64.93;100517.25;5049054;28;20051;-62
2021/05/16 06:03:26;;;;;;;6.03;5.43;;;;;;;16.20;65.29;100515.19;5048979;28;20489;-62
2021/05/16 06:05:53;;;;;;;7.88;6.13;;;;;;;16.23;65.45;100514.97;5049099;28;20045;-60
2021/05/16 06:08:20;;;;;;;7.93;5.95;;;;;;;16.25;65.50;100513.88;5048842;28;20507;-60
2021/05/16 06:10:47;;;;;;;8.25;6.57;;;;;;;16.29;65.39;100515.28;5048838;28;20049;-62
2021/05/16 06:13:14;;;;;;;7.30;6.50;;;;;;;16.29;65.21;100517.06;5034807;28;20445;-62
2021/05/16 06:15:41;;;;;;;7.40;6.68;;;;;;;16.31;65.18;100515.97;5048779;28;20155;-62
2021/05/16 06:18:07;;;;;;;7.80;6.80;;;;;;;16.34;65.50;100509.59;5048541;28;20448;-62
2021/05/16 06:20:34;;;;;;;9.20;6.95;;;;;;;16.37;65.46;100511.97;5048705;28;20060;-62
2021/05/16 06:23:03;;;;;;;8.90;7.30;;;;;;;16.39;65.41;100502.09;5049125;28;20449;-62
2021/05/16 06:25:29;;;;;;;8.13;6.93;;;;;;;16.44;65.20;100499.91;5048590;28;20131;-62
2021/05/16 06:27:56;;;;;;;9.68;7.38;;;;;;;16.49;65.48;100503.00;5048486;28;20048;-60
2021/05/16 06:30:24;;;;;;;10.27;7.45;;;;;;;16.54;65.37;100509.69;5046826;28;20132;-60
2021/05/16 06:32:51;;;;;;;8.75;7.70;;;;;;;16.57;65.25;100504.97;5043696;28;20041;-60
2021/05/16 06:35:18;;;;;;;8.95;7.53;;;;;;;16.59;65.22;100510.97;5039512;28;20126;-60
2021/05/16 06:37:46;;;;;;;12.68;7.95;;;;;;;16.61;65.17;100513.50;5048627;28;20055;-60
2021/05/16 06:40:14;;;;;;;11.77;8.25;;;;;;;16.62;65.19;100516.00;5048889;28;20057;-60
2021/05/16 06:42:42;;;;;;;9.35;7.80;;;;;;;16.64;65.13;100516.69;5048409;28;20088;-60
2021/05/16 06:45:11;;;;;;;9.45;7.90;;;;;;;16.67;64.82;100520.94;5048462;28;20124;-60
2021/05/16 06:47:38;;;;;;;8.43;7.28;;;;;;;16.72;65.04;100520.50;5035144;28;20135;-60
2021/05/16 06:50:09;;;;;;;12.02;8.10;;;;;;;16.76;64.91;100521.91;5048702;28;20452;-60
2021/05/16 06:52:35;;;;;;;8.63;7.43;;;;;;;16.79;64.84;100521.66;5048618;28;20045;-60
2021/05/16 06:55:03;;;;;;;8.65;7.75;;;;;;;16.85;64.56;100526.44;5048349;28;20239;-59
2021/05/16 06:57:31;;;;;;;10.07;7.78;;;;;;;16.92;64.62;100521.47;5048702;28;20064;-60
2021/05/16 07:00:00;;;;;;;10.98;8.50;;;;;;;16.96;64.58;100525.53;5048262;28;20139;-60
2021/05/16 07:02:26;;;;;;;9.35;8.45;;;;;;;17.00;64.45;100516.34;5037379;28;20041;-62
2021/05/16 07:04:54;;;;;;;9.50;7.95;;;;;;;17.06;64.42;100517.59;5044980;28;20485;-60
2021/05/16 07:07:21;;;;;;;9.15;8.00;;;;;;;17.13;64.06;100519.59;5048276;28;20048;-60
2021/05/16 07:09:47;;;;;;;9.65;8.48;;;;;;;17.20;63.96;100522.53;5050890;28;20053;-60
2021/05/16 07:12:15;;;;;;;9.77;8.45;;;;;;;17.26;64.05;100519.34;5052132;28;20045;-60
2021/05/16 07:14:42;;;;;;;10.23;8.15;;;;;;;17.28;63.83;100513.88;5052378;28;20045;-60
2021/05/16 07:17:08;;;;;;;9.13;7.30;;;;;;;17.29;63.87;100519.06;5052063;28;20037;-62
2021/05/16 07:19:35;;;;;;;9.50;7.88;;;;;;;17.30;63.69;100525.22;5048213;28;20139;-62
2021/05/16 07:22:02;;;;;;;8.02;7.10;;;;;;;17.32;63.54;100527.72;5049905;28;20041;-60
2021/05/16 07:24:29;;;;;;;8.00;7.20;;;;;;;17.32;63.64;100527.72;5052032;28;20510;-62
2021/05/16 07:26:56;;;;;;;8.98;6.72;;;;;;;17.33;63.53;100526.75;5051784;28;20045;-62
2021/05/16 07:29:23;;;;;;;8.10;7.22;;;;;;;17.37;63.70;100538.75;5051905;28;20045;-62
2021/05/16 07:31:50;;;;;;;7.75;6.50;;;;;;;17.37;63.43;100534.31;5051747;28;20084;-62
2021/05/16 07:34:17;;;;;;;10.13;6.85;;;;;;;17.36;62.83;100529.97;5037776;28;20045;-62
2021/05/16 07:36:44;;;;;;;7.18;6.15;;;;;;;17.38;62.86;100537.78;5051072;28;20114;-62
2021/05/16 07:39:11;;;;;;;8.10;5.90;;;;;;;17.37;62.96;100534.31;5044507;28;20696;-65
2021/05/16 07:41:38;;;;;;;10.57;6.60;;;;;;;17.39;62.51;100536.81;5034359;28;20060;-66
2021/05/16 07:44:06;;;;;;;8.88;6.30;;;;;;;17.45;62.90;100538.94;5033767;28;20509;-66
2021/05/16 07:46:32;;;;;;;8.23;6.68;;;;;;;17.51;62.54;100532.22;5051004;28;20052;-67
2021/05/16 07:48:59;;;;;;;7.00;6.28;;;;;;;17.56;62.39;100549.41;5051317;28;20099;-66
2021/05/16 07:51:26;;;;;;;7.55;6.30;;;;;;;17.60;62.27;100556.13;5050429;28;20132;-66
2021/05/16 07:53:55;;;;;;;8.00;6.38;;;;;;;17.67;62.15;100563.53;5050373;28;20052;-66
2021/05/16 07:56:23;;;;;;;8.95;6.30;;;;;;;17.74;62.19;100569.97;5050450;28;20049;-66
2021/05/16 07:58:50;;;;;;;7.53;6.22;;;;;;;17.82;61.65;100550.72;5050995;28;20053;-68
2021/05/16 08:01:16;;;;;;;8.02;6.72;;;;;;;17.93;61.89;100548.78;5050521;28;20056;-68
2021/05/16 08:03:46;;;;;;;7.47;6.25;;;;;;;18.03;61.76;100543.47;5039180;28;20080;-65
2021/05/16 08:06:13;;;;;;;9.18;6.43;;;;;;;17.97;61.72;100538.72;5030949;28;20068;-67
2021/05/16 08:08:41;;;;;;;8.27;5.65;;;;;;;17.89;61.74;100536.72;5033302;28;20502;-67
2021/05/16 08:11:08;;;;;;;6.72;5.88;;;;;;;17.85;61.98;100542.44;5032742;28;20041;-67
2021/05/16 08:13:35;;;;;;;8.07;6.35;;;;;;;17.83;62.26;100542.59;5040677;28;20472;-65
2021/05/16 08:16:02;;;;;;;7.65;6.05;;;;;;;17.87;61.87;100538.69;5036633;28;20088;-69
2021/05/16 08:18:29;;;;;;;6.20;5.60;;;;;;;17.98;61.91;100535.09;5046190;28;20052;-67
2021/05/16 08:20:56;;;;;;;7.45;5.68;;;;;;;18.07;61.54;100536.06;5049261;28;20051;-67
2021/05/16 08:23:23;;;;;;;8.50;5.80;;;;;;;18.11;61.14;100534.78;5048408;28;20494;-66
2021/05/16 08:25:53;;;;;;;8.05;5.03;;;;;;;18.20;61.08;100533.13;5049020;28;20128;-66
2021/05/16 08:28:20;;;;;;;6.13;4.72;;;;;;;18.30;59.94;100535.72;5048543;28;20143;-69
2021/05/16 08:30:54;;;;;;;5.75;4.90;;;;;;;18.37;59.88;100539.50;5049570;28;20053;-66
2021/05/16 08:33:21;;;;;;;5.95;5.03;;;;;;;18.52;58.99;100550.53;5037400;28;20037;-68
2021/05/16 08:35:50;;;;;;;6.38;5.70;;;;;;;18.61;59.01;100549.66;5049462;28;20111;-67
2021/05/16 08:38:17;;;;;;;8.82;5.30;;;;;;;18.64;59.25;100540.56;5037658;28;20040;-66
2021/05/16 08:40:46;;;;;;;6.82;5.00;;;;;;;18.64;58.58;100536.09;5049084;28;20512;-68
2021/05/16 08:43:14;;;;;;;5.55;4.65;;;;;;;18.71;58.27;100539.81;5049782;28;20048;-68
2021/05/16 08:45:43;;;;;;;6.65;4.70;;;;;;;18.74;58.23;100550.19;5049779;28;20049;-68
2021/05/16 08:48:10;;;;;;;6.20;4.80;;;;;;;18.74;57.77;100554.66;5050133;28;20037;-68
2021/05/16 08:50:37;;;;;;;6.75;5.35;;;;;;;18.73;57.32;100545.84;5048360;28;20051;-68
2021/05/16 08:53:04;;;;;;;7.30;5.43;;;;;;;18.65;57.56;100551.06;5042073;28;20053;-68
2021/05/16 08:55:31;;;;;;;5.07;4.50;;;;;;;18.60;57.75;100556.81;5039258;28;20045;-68
2021/05/16 08:57:58;;;;;;;6.53;4.93;;;;;;;18.57;57.57;100548.28;5040363;28;20441;-67
2021/05/16 09:00:26;;;;;;;5.35;4.35;;;;;;;18.54;57.54;100553.88;5037974;28;20057;-66
2021/05/16 09:03:04;;;;;;;5.75;3.70;;;;;;;18.55;58.08;100551.09;5031210;28;20092;-68
2021/05/16 09:05:41;;;;;;;6.53;3.75;;;;;;;18.62;58.28;100551.34;5029910;28;20048;-66
2021/05/16 09:08:16;;;;;;;6.32;3.83;;;;;;;18.73;58.03;100553.81;5031584;28;20121;-66
2021/05/16 09:11:05;;;;;;;4.95;3.70;;;;;;;18.88;58.42;100554.19;5031105;28;20056;-67
2021/05/16 09:13:40;;;;;;;6.65;3.58;;;;;;;18.91;58.07;100559.25;5042535;28;20045;-68
2021/05/16 09:16:07;;;;;;;5.50;4.55;;;;;;;19.03;58.44;100556.41;5044354;28;20061;-67
2021/05/16 09:18:37;;;;;;;6.43;4.32;;;;;;;19.13;57.97;100548.38;5038551;28;20048;-66
2021/05/16 09:21:36;;;;;;;7.03;4.25;;;;;;;19.30;57.97;100552.06;5036637;28;20045;-66
2021/05/16 09:24:03;;;;;;;7.10;5.35;;;;;;;19.30;57.69;100546.75;5030053;28;20120;-68
2021/05/16 09:26:34;;;;;;;6.70;4.97;;;;;;;19.32;57.19;100550.91;5031717;28;20048;-66
2021/05/16 09:29:33;;;;;;;5.93;4.70;;;;;;;19.36;56.94;100547.00;5032977;28;20057;-65
2021/05/16 09:32:01;;;;;;;5.43;4.10;;;;;;;19.43;56.72;100549.88;5032485;28;20054;-65
2021/05/16 09:34:29;;;;;;;5.07;4.57;;;;;;;19.52;56.62;100550.81;5033739;28;20486;-69
2021/05/16 09:36:56;;;;;;;7.03;4.32;;;;;;;19.49;56.12;100554.63;5035134;28;20073;-63
2021/05/16 09:39:28;;;;;;;6.72;5.22;;;;;;;19.50;55.31;100571.41;5035307;28;20044;-65
2021/05/16 09:42:07;;;;;;;6.78;4.63;;;;;;;19.55;55.18;100562.00;5048837;28;20076;-66
2021/05/16 09:44:44;;;;;;;8.75;4.78;;;;;;;19.73;55.50;100559.34;5048808;28;20440;-64
2021/05/16 09:47:15;;;;;;;9.25;4.07;;;;;;;19.86;55.23;100564.34;5048835;28;20102;-64
2021/05/16 09:49:54;;;;;;;7.57;4.40;;;;;;;19.98;55.36;100551.59;5048966;28;20110;-67
2021/05/16 09:52:26;;;;;;;8.20;5.50;;;;;;;20.03;54.73;100554.66;5049148;28;20049;-63
2021/05/16 09:55:07;;;;;;;6.40;4.60;;;;;;;19.99;54.29;100555.94;5047095;28;20049;-63
2021/05/16 09:57:36;;;;;;;8.02;5.68;;;;;;;19.99;54.77;100561.28;5048540;28;20547;-63
2021/05/16 10:00:05;;;;;;;6.60;4.65;;;;;;;20.08;54.70;100550.72;5048467;28;20140;-62
2021/05/16 10:02:33;;;;;;;6.57;4.47;;;;;;;20.16;54.73;100553.44;5048705;28;20513;-63
2021/05/16 10:05:01;;;;;;;8.05;5.40;;;;;;;20.27;55.15;100550.50;5042973;28;20052;-66
2021/05/16 10:07:30;;;;;;;7.32;5.50;;;;;;;20.40;54.56;100536.78;5041373;28;20045;-63
2021/05/16 10:09:58;;;;;;;15.50;5.03;;;;;;;20.45;54.78;100544.31;5043203;28;20132;-64
2021/05/16 10:12:25;;;;;;;8.63;4.72;;;;;;;20.58;54.64;100546.56;5039629;28;20049;-63
2021/05/16 10:15:13;;;;;;;11.25;5.30;;;;;;;20.68;54.13;100541.94;5037705;28;20128;-70
2021/05/16 10:17:42;;;;;;;7.53;5.07;;;;;;;20.84;53.56;100535.91;5042821;28;20045;-65
2021/05/16 10:20:11;;;;;;;8.00;4.32;;;;;;;20.90;53.41;100524.59;5042335;28;20049;-63
2021/05/16 10:22:39;;;;;;;7.43;4.28;;;;;;;20.94;53.34;100523.28;5039454;28;20453;-62
2021/05/16 10:25:07;;;;;;;8.93;6.18;;;;;;;20.85;53.12;100525.06;5037797;28;20045;-64
2021/05/16 10:27:46;;;;;;;9.95;6.82;;;;;;;20.87;53.86;100535.56;5042542;28;20055;-63
2021/05/16 10:30:17;;;;;;;12.60;6.78;;;;;;;20.81;54.10;100538.88;5036981;28;20409;-65
2021/05/16 10:32:48;;;;;;;12.13;6.40;;;;;;;20.71;54.11;100531.84;5039062;28;20586;-67
2021/05/16 10:35:14;;;;;;;8.45;6.88;;;;;;;20.60;54.46;100526.75;5039085;28;20055;-63
2021/05/16 10:37:48;;;;;;;15.02;6.43;;;;;;;20.49;54.88;100535.00;5048756;28;20045;-63
2021/05/16 10:40:47;;;;;;;16.08;6.70;;;;;;;20.39;55.10;100524.44;5032692;28;20046;-63
2021/05/16 10:43:26;;;;;;;7.60;6.45;;;;;;;20.32;55.18;100524.22;5027959;28;20049;-64
2021/05/16 10:45:52;;;;;;;10.07;6.93;;;;;;;20.29;55.09;100537.03;5042753;28;20512;-63
2021/05/16 10:48:28;;;;;;;9.63;6.22;;;;;;;20.20;54.75;100525.47;5042973;28;20042;-67
2021/05/16 10:50:59;;;;;;;8.27;6.80;;;;;;;20.14;54.87;100520.78;5032986;28;20045;-63
2021/05/16 10:53:34;;;;;;;11.20;6.70;;;;;;;20.05;55.61;100538.53;5039705;28;20049;-63
2021/05/16 10:56:06;;;;;;;7.82;6.45;;;;;;;19.94;55.09;100528.94;5032604;28;20056;-65
2021/05/16 10:58:32;;;;;;;14.60;6.40;;;;;;;19.84;55.25;100531.69;5041642;28;20053;-64
2021/05/16 11:01:02;;;;;;;9.70;6.60;;;;;;;19.77;55.62;100535.06;5049534;28;20080;-63
2021/05/16 11:03:48;;;;;;;12.65;5.97;;;;;;;19.70;56.12;100532.19;5052231;28;20037;-63
2021/05/16 11:06:21;;;;;;;9.43;6.03;;;;;;;19.65;56.32;100540.63;5051772;28;20048;-62
2021/05/16 11:08:51;;;;;;;8.32;6.25;;;;;;;19.57;56.26;100533.41;5045270;28;20053;-62
2021/05/16 11:11:28;;;;;;;11.57;6.93;;;;;;;19.50;56.01;100534.16;5048817;28;20071;-62
2021/05/16 11:13:55;;;;;;;8.73;6.55;;;;;;;19.39;55.96;100528.06;5037492;28;20055;-63
2021/05/16 11:16:22;;;;;;;19.10;8.73;;;;;;;19.33;55.53;100528.66;5048952;28;20052;-64
2021/05/16 11:18:49;;;;;;;13.48;7.50;;;;;;;19.31;56.26;100532.44;5040885;28;20056;-63
2021/05/16 11:21:17;;;;;;;8.70;6.13;;;;;;;19.31;56.99;100528.00;5036922;28;20060;-63
2021/05/16 11:23:45;;;;;;;9.07;6.88;;;;;;;19.27;56.70;100531.09;5042403;28;20095;-62
2021/05/16 11:26:14;;;;;;;10.43;7.88;;;;;;;19.23;56.90;100527.88;5040656;28;20487;-63
2021/05/16 11:28:45;;;;;;;11.15;7.63;;;;;;;19.20;57.39;100531.69;5035917;28;20052;-64
2021/05/16 11:31:20;;;;;;;10.80;7.60;;;;;;;19.21;57.56;100528.03;5031082;28;20056;-63